Time;durP1;ratioP1;P1;durP2;ratioP2;P2;SDS_P1;SDS_P2;PMS_P1;PMS_P2;Temp;Humidity;BMP_temperature;BMP_pressure;BME280_temperature;BME280_humidity;BME280_pressure;Samples;Min_cycle;Max_cycle;Signal;HPM_P1;HPM_P2
2023/06/07 00:02:00;;;;;;;3.53;1.88;;;10.40;99.90;;;;;;5073858;28;20404;-65
2023/06/07 00:04:25;;;;;;;5.60;2.40;;;10.40;1.00;;;;;;5075602;28;20404;-64
2023/06/07 00:06:56;;;;;;;4.35;2.25;;;10.40;61.80;;;;;;5075360;28;20040;-64
2023/06/07 00:09:22;;;;;;;5.25;2.13;;;10.30;99.90;;;;;;5075086;28;20119;-65
2023/06/07 00:11:48;;;;;;;8.07;2.60;;;10.30;19.00;;;;;;5075373;28;20119;-65
2023/06/07 00:14:13;;;;;;;10.07;2.70;;;10.30;1.00;;;;;;5074185;28;20068;-64
2023/06/07 00:16:39;;;;;;;4.25;2.45;;;10.30;99.90;;;;;;5075290;28;20032;-65
2023/06/07 00:19:06;;;;;;;5.35;2.55;;;10.30;1.00;;;;;;5075214;28;20438;-65
2023/06/07 00:21:32;;;;;;;5.82;2.55;;;10.20;99.90;;;;;;5074855;28;20040;-65
2023/06/07 00:23:57;;;;;;;6.28;2.08;;;10.20;1.00;;;;;;5075228;28;20054;-65
2023/06/07 00:26:23;;;;;;;4.40;1.92;;;10.20;99.90;;;;;;5075149;28;20043;-65
2023/06/07 00:28:49;;;;;;;6.22;2.28;;;10.20;99.90;;;;;;5075061;28;20115;-64
2023/06/07 00:31:15;;;;;;;8.50;2.95;;;10.20;99.90;;;;;;5074975;28;20116;-64
2023/06/07 00:33:40;;;;;;;4.28;2.53;;;10.20;99.90;;;;;;5074950;28;20044;-64
2023/06/07 00:36:06;;;;;;;3.63;2.22;;;10.20;99.90;;;;;;5074874;28;20068;-64
2023/06/07 00:38:32;;;;;;;4.47;2.08;;;10.20;90.20;;;;;;5074537;28;20040;-65
2023/06/07 00:40:57;;;;;;;3.72;2.20;;;10.20;99.90;;;;;;5074821;28;20040;-64
2023/06/07 00:43:24;;;;;;;5.22;2.40;;;10.20;1.00;;;;;;5074869;28;20087;-65
2023/06/07 00:45:50;;;;;;;2.88;1.63;;;10.20;87.90;;;;;;5074504;28;20075;-65
2023/06/07 00:48:16;;;;;;;5.05;2.10;;;10.20;99.90;;;;;;5074602;28;20076;-65
2023/06/07 00:50:41;;;;;;;6.30;2.47;;;10.20;99.90;;;;;;5074358;28;20040;-65
2023/06/07 00:53:08;;;;;;;2.95;2.00;;;10.20;99.90;;;;;;5074022;28;20032;-65
2023/06/07 00:55:34;;;;;;;5.47;2.20;;;10.20;5.10;;;;;;5074561;28;20146;-64
2023/06/07 00:58:00;;;;;;;5.70;2.38;;;10.20;99.90;;;;;;5074444;28;20039;-65
2023/06/07 01:00:28;;;;;;;5.35;2.13;;;10.10;99.90;;;;;;5074904;28;20067;-62
2023/06/07 01:02:55;;;;;;;4.57;2.42;;;10.10;60.30;;;;;;5072986;28;20048;-67
2023/06/07 01:05:21;;;;;;;3.40;1.90;;;10.10;7.60;;;;;;5074372;28;20069;-68
2023/06/07 01:07:48;;;;;;;3.67;2.35;;;10.10;1.00;;;;;;5074045;28;20553;-68
2023/06/07 01:10:14;;;;;;;5.25;2.25;;;10.10;70.60;;;;;;5072593;28;20555;-68
2023/06/07 01:12:44;;;;;;;4.85;2.33;;;10.10;99.90;;;;;;5072934;28;20048;-68
2023/06/07 01:15:13;;;;;;;6.07;2.35;;;10.10;99.90;;;;;;5074066;28;20076;-68
2023/06/07 01:17:44;;;;;;;4.70;2.35;;;10.10;99.90;;;;;;5074080;28;20040;-68
2023/06/07 01:20:20;;;;;;;8.07;2.42;;;10.10;99.90;;;;;;5074108;28;20400;-68
2023/06/07 01:22:48;;;;;;;6.38;2.03;;;10.10;99.90;;;;;;5072696;28;20066;-68
2023/06/07 01:25:14;;;;;;;4.20;2.30;;;10.10;99.90;;;;;;5073942;28;20045;-67
2023/06/07 01:27:43;;;;;;;7.28;2.50;;;10.10;99.90;;;;;;5073879;28;20041;-67
2023/06/07 01:30:11;;;;;;;3.65;2.67;;;10.10;99.90;;;;;;5073783;28;20040;-67
2023/06/07 01:32:39;;;;;;;8.43;2.83;;;10.10;99.90;;;;;;5073787;28;20089;-68
2023/06/07 01:35:07;;;;;;;3.75;1.85;;;10.20;99.90;;;;;;5072209;28;20120;-68
2023/06/07 01:37:35;;;;;;;2.70;1.90;;;10.20;99.90;;;;;;5073393;28;20412;-68
2023/06/07 01:40:03;;;;;;;4.15;2.30;;;10.20;99.90;;;;;;5073402;28;20044;-68
2023/06/07 01:42:29;;;;;;;4.05;2.25;;;10.30;99.90;;;;;;5073612;28;20391;-68
2023/06/07 01:44:57;;;;;;;4.72;2.53;;;10.20;99.90;;;;;;5073594;28;20137;-68
2023/06/07 01:47:22;;;;;;;8.63;2.55;;;10.30;99.90;;;;;;5073469;28;20040;-67
2023/06/07 01:49:48;;;;;;;4.90;2.50;;;10.30;99.90;;;;;;5073391;28;20170;-67
2023/06/07 01:52:13;;;;;;;7.63;2.33;;;10.40;99.90;;;;;;5073454;28;20032;-67
2023/06/07 01:54:40;;;;;;;6.50;3.10;;;10.40;1.00;;;;;;5073444;28;20102;-67
2023/06/07 01:57:29;;;;;;;6.75;2.25;;;10.40;1.00;;;;;;5073091;28;20036;-68
2023/06/07 02:00:09;;;;;;;4.95;2.63;;;10.50;1.00;;;;;;5073328;28;20041;-67
2023/06/07 02:02:46;;;;;;;5.07;2.35;;;10.50;1.00;;;;;;5071779;28;20045;-68
2023/06/07 02:05:25;;;;;;;4.55;2.15;;;10.50;99.90;;;;;;5072427;28;20051;-68
2023/06/07 02:07:55;;;;;;;5.03;2.15;;;10.60;99.90;;;;;;5073162;28;20094;-68
2023/06/07 02:10:24;;;;;;;4.67;2.30;;;10.60;99.90;;;;;;5073227;28;20040;-68
2023/06/07 02:12:52;;;;;;;3.05;2.00;;;10.60;99.90;;;;;;5073228;28;20111;-67
2023/06/07 02:15:19;;;;;;;5.60;2.33;;;10.70;99.90;;;;;;5072841;28;20043;-68
2023/06/07 02:18:01;;;;;;;5.43;2.35;;;10.70;99.90;;;;;;5073108;28;20042;-68
2023/06/07 02:20:31;;;;;;;3.70;2.03;;;10.70;99.90;;;;;;5071486;28;20045;-68
2023/06/07 02:22:57;;;;;;;4.80;2.47;;;10.70;99.90;;;;;;5071466;28;20041;-67
2023/06/07 02:25:24;;;;;;;4.78;2.45;;;10.70;99.90;;;;;;5071357;28;20044;-67
2023/06/07 02:27:50;;;;;;;10.15;2.50;;;10.70;99.90;;;;;;5072910;28;20450;-67
2023/06/07 02:30:16;;;;;;;4.05;2.25;;;10.70;99.90;;;;;;5072587;28;20044;-68
2023/06/07 02:32:45;;;;;;;5.07;2.30;;;10.80;99.90;;;;;;5071696;28;20120;-67
2023/06/07 02:35:11;;;;;;;5.35;2.60;;;10.80;99.90;;;;;;5072877;28;20083;-68
2023/06/07 02:37:37;;;;;;;4.75;2.30;;;11.00;99.90;;;;;;5072853;28;20040;-68
2023/06/07 02:40:08;;;;;;;4.32;2.63;;;10.80;99.90;;;;;;5072930;28;20036;-68
2023/06/07 02:42:37;;;;;;;3.28;2.25;;;10.80;99.90;;;;;;5072867;28;20437;-68
2023/06/07 02:45:04;;;;;;;5.68;2.42;;;10.80;99.90;;;;;;5072833;28;20475;-67
2023/06/07 02:47:30;;;;;;;9.35;2.55;;;10.90;99.90;;;;;;5072797;28;20090;-68
2023/06/07 02:49:56;;;;;;;9.98;2.78;;;10.90;99.90;;;;;;5072675;28;20044;-68
2023/06/07 02:52:22;;;;;;;7.05;2.80;;;10.90;99.90;;;;;;5072453;28;20044;-67
2023/06/07 02:54:48;;;;;;;3.78;2.20;;;11.00;99.90;;;;;;5072753;28;20045;-68
2023/06/07 02:57:14;;;;;;;7.53;3.03;;;11.00;99.90;;;;;;5072307;28;20508;-67
2023/06/07 02:59:40;;;;;;;6.82;2.70;;;11.00;99.90;;;;;;5072592;28;20043;-67
2023/06/07 03:02:06;;;;;;;9.18;2.22;;;11.90;99.90;;;;;;5072106;28;20048;-67
2023/06/07 03:04:32;;;;;;;12.30;3.40;;;11.00;99.90;;;;;;5071004;28;20057;-67
2023/06/07 03:06:58;;;;;;;4.13;2.50;;;11.00;99.90;;;;;;5072469;28;20040;-67
2023/06/07 03:09:24;;;;;;;5.45;2.60;;;11.00;99.90;;;;;;5072146;28;20059;-68
2023/06/07 03:11:50;;;;;;;6.68;2.67;;;11.20;99.90;;;;;;5072115;28;20132;-67
2023/06/07 03:14:19;;;;;;;6.70;2.45;;;11.00;99.90;;;;;;5072072;28;20068;-68
2023/06/07 03:16:48;;;;;;;5.97;2.30;;;11.00;99.90;;;;;;5074232;28;20037;-68
2023/06/07 03:19:14;;;;;;;5.63;3.05;;;11.10;99.90;;;;;;5075983;28;20040;-68
2023/06/07 03:21:40;;;;;;;6.07;2.55;;;11.10;99.90;;;;;;5074973;28;20060;-68
2023/06/07 03:24:06;;;;;;;8.35;2.85;;;11.10;99.90;;;;;;5076227;28;20128;-67
2023/06/07 03:26:32;;;;;;;7.80;2.95;;;11.10;99.90;;;;;;5076188;28;20090;-67
2023/06/07 03:28:57;;;;;;;5.10;2.58;;;11.10;99.90;;;;;;5075681;28;20080;-67
2023/06/07 03:31:23;;;;;;;7.55;2.60;;;11.10;74.10;;;;;;5076098;28;20028;-67
2023/06/07 03:33:49;;;;;;;8.43;2.47;;;11.20;1.00;;;;;;5074741;28;20400;-67
2023/06/07 03:36:17;;;;;;;4.30;2.33;;;11.20;3.70;;;;;;5075785;28;20047;-67
2023/06/07 03:38:43;;;;;;;6.68;2.60;;;11.10;20.40;;;;;;5074470;28;20158;-67
2023/06/07 03:41:08;;;;;;;4.82;2.15;;;11.10;99.90;;;;;;5075580;28;20048;-67
2023/06/07 03:43:34;;;;;;;5.85;2.40;;;11.10;99.90;;;;;;5074710;28;20045;-68
2023/06/07 03:45:59;;;;;;;10.15;2.28;;;11.10;99.90;;;;;;5075475;28;20500;-67
2023/06/07 03:48:25;;;;;;;6.55;2.28;;;11.10;99.90;;;;;;5075739;28;20071;-68
2023/06/07 03:50:51;;;;;;;7.43;2.15;;;11.20;99.90;;;;;;5075705;28;20072;-67
2023/06/07 03:53:16;;;;;;;6.90;2.63;;;11.20;99.90;;;;;;5075613;28;20043;-68
2023/06/07 03:55:42;;;;;;;4.53;2.50;;;11.20;99.90;;;;;;5074228;28;20090;-68
2023/06/07 03:58:08;;;;;;;4.03;2.03;;;11.20;99.90;;;;;;5075615;28;20033;-68
2023/06/07 04:00:34;;;;;;;3.05;1.75;;;11.20;99.90;;;;;;5075280;28;20051;-67
2023/06/07 04:03:00;;;;;;;5.03;2.50;;;11.20;99.90;;;;;;5075213;28;20049;-67
2023/06/07 04:05:26;;;;;;;8.50;2.15;;;11.30;99.90;;;;;;5075523;28;20054;-67
2023/06/07 04:07:53;;;;;;;11.38;2.47;;;11.30;99.90;;;;;;5075180;28;20488;-67
2023/06/07 04:10:19;;;;;;;5.70;2.22;;;11.30;99.90;;;;;;5075312;28;20049;-67
2023/06/07 04:12:45;;;;;;;5.35;2.47;;;11.40;99.90;;;;;;5075039;28;20130;-67
2023/06/07 04:15:10;;;;;;;4.78;1.92;;;11.40;99.90;;;;;;5075267;28;20086;-67
2023/06/07 04:17:36;;;;;;;3.35;1.75;;;11.40;99.90;;;;;;5075010;28;20111;-67
2023/06/07 04:20:02;;;;;;;7.25;1.95;;;11.40;99.90;;;;;;5075103;28;20048;-67
2023/06/07 04:22:27;;;;;;;6.57;2.28;;;11.50;99.90;;;;;;5075139;28;20475;-68
2023/06/07 04:24:53;;;;;;;4.20;1.90;;;11.50;99.90;;;;;;5075093;28;20512;-67
2023/06/07 04:27:19;;;;;;;5.53;2.20;;;11.50;99.90;;;;;;5074642;28;20475;-67
2023/06/07 04:29:49;;;;;;;4.50;2.22;;;11.60;64.70;;;;;;5074453;28;20058;-67
2023/06/07 04:32:18;;;;;;;8.90;2.28;;;11.60;99.90;;;;;;5074991;28;20135;-67
2023/06/07 04:34:48;;;;;;;9.45;1.95;;;11.60;77.00;;;;;;5073526;28;20040;-67
2023/06/07 04:37:14;;;;;;;6.93;2.22;;;11.70;48.70;;;;;;5074954;28;20036;-67
2023/06/07 04:39:40;;;;;;;5.65;2.28;;;11.70;99.90;;;;;;5074934;28;20361;-67
2023/06/07 04:42:07;;;;;;;5.68;2.03;;;11.70;99.90;;;;;;5074928;28;20048;-67
2023/06/07 04:44:33;;;;;;;9.63;2.65;;;11.70;99.90;;;;;;5073400;28;20588;-67
2023/06/07 04:47:01;;;;;;;6.63;1.75;;;11.80;99.90;;;;;;5074709;28;20075;-67
2023/06/07 04:49:26;;;;;;;7.10;2.10;;;11.80;67.90;;;;;;5073170;28;20051;-67
2023/06/07 04:51:52;;;;;;;4.70;1.98;;;11.90;1.00;;;;;;5073388;28;20484;-67
2023/06/07 04:54:19;;;;;;;3.58;1.88;;;11.90;1.00;;;;;;5074621;28;20039;-67
2023/06/07 04:56:45;;;;;;;5.18;1.85;;;12.00;99.90;;;;;;5074532;28;20107;-67
2023/06/07 04:59:11;;;;;;;6.95;1.90;;;12.00;99.90;;;;;;5074179;28;20040;-67
2023/06/07 05:01:37;;;;;;;3.30;1.80;;;12.10;99.90;;;;;;5074427;28;20044;-68
2023/06/07 05:04:02;;;;;;;5.70;2.03;;;12.10;99.90;;;;;;5073957;28;20106;-67
2023/06/07 05:06:31;;;;;;;3.70;1.60;;;12.20;99.90;;;;;;5074367;28;20106;-67
2023/06/07 05:08:56;;;;;;;4.47;1.55;;;12.20;99.90;;;;;;5074267;28;20041;-68
2023/06/07 05:11:22;;;;;;;3.17;1.55;;;12.20;99.90;;;;;;5072979;28;20139;-67
2023/06/07 05:13:48;;;;;;;3.58;1.67;;;12.50;1.00;;;;;;5074255;28;20044;-67
2023/06/07 05:16:16;;;;;;;9.75;2.00;;;12.40;99.90;;;;;;5072601;28;20047;-71
2023/06/07 05:18:46;;;;;;;4.35;1.60;;;12.40;1.00;;;;;;5073856;28;20040;-67
2023/06/07 05:21:12;;;;;;;10.13;2.03;;;12.40;1.00;;;;;;5073775;28;20028;-67
2023/06/07 05:23:38;;;;;;;4.57;1.80;;;12.40;1.00;;;;;;5074518;28;20526;-63
2023/06/07 05:26:03;;;;;;;8.40;1.70;;;12.50;1.00;;;;;;5073956;28;20068;-62
2023/06/07 05:28:29;;;;;;;8.55;1.80;;;12.60;1.00;;;;;;5073574;28;20044;-64
2023/06/07 05:30:56;;;;;;;2.90;1.60;;;12.60;99.90;;;;;;5072647;28;20485;-65
2023/06/07 05:33:22;;;;;;;6.28;2.13;;;12.60;1.00;;;;;;5073566;28;20511;-63
2023/06/07 05:35:47;;;;;;;5.30;1.92;;;12.70;1.00;;;;;;5072198;28;20049;-63
2023/06/07 05:38:13;;;;;;;4.20;1.52;;;12.70;1.00;;;;;;5073402;28;20032;-62
2023/06/07 05:40:39;;;;;;;5.57;1.80;;;12.70;1.00;;;;;;5072044;28;20041;-65
2023/06/07 05:43:06;;;;;;;3.40;1.60;;;12.70;99.90;;;;;;5072026;28;20052;-62
2023/06/07 05:45:31;;;;;;;4.20;1.63;;;12.80;1.00;;;;;;5073633;28;20111;-64
2023/06/07 05:47:57;;;;;;;3.42;1.77;;;12.80;99.90;;;;;;5073527;28;20134;-63
2023/06/07 05:50:23;;;;;;;4.82;1.50;;;12.90;84.00;;;;;;5073524;28;20491;-65
2023/06/07 05:52:56;;;;;;;4.93;1.40;;;12.90;99.90;;;;;;5073178;28;20037;-63
2023/06/07 05:55:24;;;;;;;3.35;1.60;;;12.90;99.90;;;;;;5073077;28;20039;-65
2023/06/07 05:57:50;;;;;;;4.40;1.40;;;13.00;91.90;;;;;;5072024;28;20082;-65
2023/06/07 06:00:16;;;;;;;3.80;1.27;;;13.00;99.90;;;;;;5072089;28;20072;-64
2023/06/07 06:02:45;;;;;;;9.32;1.83;;;13.00;1.00;;;;;;5072895;28;20052;-64
2023/06/07 06:05:11;;;;;;;3.33;1.38;;;13.00;1.00;;;;;;5073134;28;20051;-66
2023/06/07 06:07:37;;;;;;;2.28;1.20;;;13.10;99.90;;;;;;5073110;28;20424;-66
2023/06/07 06:10:04;;;;;;;3.45;1.45;;;13.20;99.90;;;;;;5071445;28;20113;-67
2023/06/07 06:12:30;;;;;;;5.68;1.50;;;13.30;99.90;;;;;;5073032;28;20068;-65
2023/06/07 06:14:56;;;;;;;2.85;1.23;;;13.40;99.90;;;;;;5073012;28;20036;-64
2023/06/07 06:17:22;;;;;;;3.92;1.40;;;13.50;77.10;;;;;;5073033;28;20044;-64
2023/06/07 06:19:48;;;;;;;4.95;1.40;;;13.50;1.00;;;;;;5073090;28;20044;-64
2023/06/07 06:22:13;;;;;;;4.50;1.80;;;13.70;1.00;;;;;;5072687;28;20125;-64
2023/06/07 06:24:39;;;;;;;2.70;1.67;;;13.60;99.90;;;;;;5073044;28;20047;-64
2023/06/07 06:27:06;;;;;;;2.88;1.40;;;13.70;99.90;;;;;;5073000;28;20068;-64
2023/06/07 06:29:32;;;;;;;2.22;1.17;;;13.70;99.90;;;;;;5072904;28;20036;-66
2023/06/07 06:31:59;;;;;;;4.20;1.33;;;13.70;51.30;;;;;;5072580;28;20040;-64
2023/06/07 06:34:24;;;;;;;2.42;1.50;;;13.80;99.90;;;;;;5071372;28;20045;-64
2023/06/07 06:36:50;;;;;;;3.72;1.50;;;14.50;66.40;;;;;;5072869;28;20500;-63
2023/06/07 06:39:16;;;;;;;8.52;1.58;;;13.80;1.00;;;;;;5072798;28;20044;-65
2023/06/07 06:41:42;;;;;;;3.95;1.38;;;13.80;99.90;;;;;;5072864;28;20395;-65
2023/06/07 06:44:07;;;;;;;3.58;1.73;;;13.90;99.90;;;;;;5072796;28;20498;-64
2023/06/07 06:46:33;;;;;;;8.90;1.58;;;14.00;99.90;;;;;;5072742;28;20506;-64
2023/06/07 06:48:59;;;;;;;4.03;1.70;;;14.10;99.90;;;;;;5072665;28;20047;-64
2023/06/07 06:51:24;;;;;;;7.03;1.60;;;14.90;99.90;;;;;;5073924;28;20082;-64
2023/06/07 06:53:50;;;;;;;3.72;2.00;;;14.50;99.90;;;;;;5076939;28;20384;-64
2023/06/07 06:56:16;;;;;;;5.07;1.73;;;14.70;99.90;;;;;;5076493;28;20036;-65
2023/06/07 06:58:42;;;;;;;3.35;1.73;;;14.90;99.90;;;;;;5076791;28;20090;-64
2023/06/07 07:01:11;;;;;;;4.28;1.42;;;15.10;99.90;;;;;;5076592;28;20044;-65
2023/06/07 07:03:38;;;;;;;2.88;1.40;;;15.10;99.90;;;;;;5076341;28;20456;-64
2023/06/07 07:06:03;;;;;;;6.03;1.30;;;15.30;99.90;;;;;;5076640;28;20046;-66
2023/06/07 07:08:29;;;;;;;4.05;1.35;;;14.90;99.90;;;;;;5075154;28;20434;-65
2023/06/07 07:10:54;;;;;;;2.05;1.10;;;14.90;99.90;;;;;;5076526;28;20094;-65
2023/06/07 07:13:20;;;;;;;3.28;1.40;;;14.80;99.90;;;;;;5076209;28;20036;-64
2023/06/07 07:15:46;;;;;;;3.30;1.85;;;14.70;99.90;;;;;;5076088;28;20037;-65
2023/06/07 07:18:13;;;;;;;3.60;1.58;;;14.80;99.90;;;;;;5076367;28;20036;-65
2023/06/07 07:20:38;;;;;;;2.97;1.67;;;14.90;99.90;;;;;;5076446;28;20036;-68
2023/06/07 07:23:04;;;;;;;3.30;1.23;;;15.10;99.90;;;;;;5075033;28;20411;-64
2023/06/07 07:25:30;;;;;;;2.67;1.80;;;15.20;99.90;;;;;;5076312;28;20037;-65
2023/06/07 07:27:55;;;;;;;4.03;1.50;;;15.40;99.90;;;;;;5075918;28;20476;-64
2023/06/07 07:30:21;;;;;;;2.60;1.48;;;15.60;99.90;;;;;;5076069;28;20036;-65
2023/06/07 07:32:47;;;;;;;4.03;1.38;;;15.60;99.90;;;;;;5075921;28;20041;-65
2023/06/07 07:35:12;;;;;;;4.65;1.40;;;15.80;99.90;;;;;;5076077;28;20043;-65
2023/06/07 07:37:39;;;;;;;7.22;1.55;;;15.70;99.90;;;;;;5075943;28;20415;-64
2023/06/07 07:40:08;;;;;;;3.47;1.50;;;15.90;99.90;;;;;;5074380;28;20136;-65
2023/06/07 07:42:34;;;;;;;3.08;1.70;;;16.10;99.90;;;;;;5075984;28;20048;-65
2023/06/07 07:45:00;;;;;;;4.93;1.38;;;16.00;99.90;;;;;;5075871;28;20039;-65
2023/06/07 07:47:25;;;;;;;4.22;1.55;;;16.00;99.90;;;;;;5074471;28;20037;-64
2023/06/07 07:49:55;;;;;;;3.40;1.42;;;16.80;99.90;;;;;;5075718;28;20089;-64
2023/06/07 07:52:21;;;;;;;4.53;1.70;;;16.50;99.90;;;;;;5075779;28;20089;-65
2023/06/07 07:54:47;;;;;;;3.17;1.70;;;16.50;99.90;;;;;;5075670;28;20117;-65
2023/06/07 07:57:12;;;;;;;7.93;1.58;;;16.70;99.90;;;;;;5075429;28;20049;-64
2023/06/07 07:59:38;;;;;;;3.42;1.30;;;16.80;99.90;;;;;;5075588;28;20066;-64
2023/06/07 08:02:05;;;;;;;4.47;1.65;;;16.90;99.90;;;;;;5074851;28;20136;-65
2023/06/07 08:04:30;;;;;;;4.65;1.63;;;17.00;99.90;;;;;;5074715;28;20426;-64
2023/06/07 08:06:56;;;;;;;2.83;1.48;;;16.90;99.90;;;;;;5073939;28;20094;-64
2023/06/07 08:09:22;;;;;;;6.30;1.77;;;16.90;99.50;;;;;;5075407;28;20532;-64
2023/06/07 08:11:48;;;;;;;2.85;1.45;;;17.20;99.90;;;;;;5074090;28;20054;-65
2023/06/07 08:14:14;;;;;;;2.67;1.13;;;17.30;99.90;;;;;;5074160;28;20036;-65
2023/06/07 08:16:40;;;;;;;3.20;1.65;;;17.40;99.90;;;;;;5074951;28;20062;-65
2023/06/07 08:19:07;;;;;;;4.88;1.70;;;17.30;99.80;;;;;;5074913;28;20568;-65
2023/06/07 08:21:33;;;;;;;5.80;2.05;;;17.60;99.90;;;;;;5075115;28;20048;-67
2023/06/07 08:23:59;;;;;;;6.03;1.63;;;17.60;98.50;;;;;;5075043;28;20087;-65
2023/06/07 08:26:25;;;;;;;3.28;1.48;;;18.30;98.50;;;;;;5075069;28;20082;-65
2023/06/07 08:28:51;;;;;;;2.55;1.40;;;17.80;97.90;;;;;;5073646;28;20523;-65
2023/06/07 08:31:19;;;;;;;6.18;1.70;;;17.80;93.70;;;;;;5074796;28;20033;-64
2023/06/07 08:33:45;;;;;;;5.15;1.70;;;17.80;93.60;;;;;;5073221;28;20154;-65
2023/06/07 08:36:11;;;;;;;2.95;1.80;;;17.80;93.60;;;;;;5074707;28;20090;-65
2023/06/07 08:38:41;;;;;;;3.35;1.40;;;17.90;92.50;;;;;;5073197;28;20044;-64
2023/06/07 08:41:07;;;;;;;8.70;1.63;;;17.90;91.40;;;;;;5074590;28;20036;-64
2023/06/07 08:43:33;;;;;;;5.88;1.98;;;17.90;89.60;;;;;;5074702;28;20083;-67
2023/06/07 08:46:04;;;;;;;5.60;1.98;;;17.80;80.00;;;;;;5074242;28;20083;-64
2023/06/07 08:48:31;;;;;;;3.40;1.95;;;17.80;82.40;;;;;;5074504;28;20047;-65
2023/06/07 08:51:00;;;;;;;4.05;1.73;;;18.10;86.00;;;;;;5074602;28;20044;-64
2023/06/07 08:53:40;;;;;;;8.10;1.83;;;18.10;85.70;;;;;;5074595;28;20043;-65
2023/06/07 08:56:07;;;;;;;2.13;1.23;;;18.20;87.10;;;;;;5074167;28;20047;-65
2023/06/07 08:58:33;;;;;;;4.75;1.80;;;18.20;86.50;;;;;;5074619;28;20614;-65
2023/06/07 09:01:00;;;;;;;4.50;1.38;;;18.30;84.10;;;;;;5072848;28;20048;-65
2023/06/07 09:03:26;;;;;;;5.25;1.63;;;18.30;84.70;;;;;;5074121;28;20055;-65
2023/06/07 09:05:55;;;;;;;5.05;1.50;;;18.30;80.20;;;;;;5074370;28;20048;-65
2023/06/07 09:08:21;;;;;;;4.85;1.60;;;18.40;80.70;;;;;;5074267;28;20072;-65
2023/06/07 09:10:46;;;;;;;3.03;1.42;;;18.30;81.70;;;;;;5074253;28;20068;-64
2023/06/07 09:13:20;;;;;;;2.97;1.30;;;18.60;82.00;;;;;;5074238;28;20040;-64
2023/06/07 09:15:48;;;;;;;6.75;1.63;;;18.60;78.10;;;;;;5073490;28;20032;-65
2023/06/07 09:18:14;;;;;;;2.97;1.35;;;18.50;74.20;;;;;;5074119;28;20045;-65
2023/06/07 09:20:39;;;;;;;6.75;1.65;;;18.60;73.00;;;;;;5074070;28;20037;-65
2023/06/07 09:23:14;;;;;;;2.38;1.42;;;18.60;72.40;;;;;;5072470;28;20032;-65
2023/06/07 09:25:44;;;;;;;2.47;1.33;;;18.60;67.80;;;;;;5074045;28;20048;-67
2023/06/07 09:28:11;;;;;;;2.90;1.67;;;18.70;70.10;;;;;;5073937;28;20040;-65
2023/06/07 09:30:57;;;;;;;2.92;1.30;;;18.80;68.60;;;;;;5072653;28;20598;-64
2023/06/07 09:33:28;;;;;;;2.28;1.42;;;18.80;61.90;;;;;;5073741;28;20111;-64
2023/06/07 09:36:04;;;;;;;3.72;1.85;;;18.90;64.10;;;;;;5073478;28;20032;-65
2023/06/07 09:38:30;;;;;;;3.78;1.40;;;18.90;61.80;;;;;;5073755;28;20037;-65
2023/06/07 09:41:00;;;;;;;3.22;1.80;;;19.00;59.20;;;;;;5073340;28;20517;-66
2023/06/07 09:43:26;;;;;;;4.82;1.65;;;18.90;62.30;;;;;;5073716;28;20040;-65
2023/06/07 09:45:56;;;;;;;4.18;2.10;;;19.10;63.80;;;;;;5073597;28;20036;-66
2023/06/07 09:48:22;;;;;;;2.90;1.77;;;19.20;61.60;;;;;;5073491;28;20036;-65
2023/06/07 09:50:58;;;;;;;4.65;2.05;;;19.20;60.40;;;;;;5073437;28;20115;-65
2023/06/07 09:53:24;;;;;;;4.82;1.88;;;19.30;60.30;;;;;;5073444;28;20113;-65
2023/06/07 09:55:50;;;;;;;4.65;2.03;;;19.30;58.40;;;;;;5073490;28;20033;-65
2023/06/07 09:58:22;;;;;;;5.85;1.88;;;19.30;58.80;;;;;;5073122;28;20525;-65
2023/06/07 10:00:48;;;;;;;4.70;1.58;;;19.20;53.40;;;;;;5073086;28;20044;-65
2023/06/07 10:03:15;;;;;;;3.53;1.70;;;19.30;56.50;;;;;;5073100;28;20060;-66
2023/06/07 10:05:43;;;;;;;4.75;1.38;;;19.40;62.00;;;;;;5073027;28;20033;-65
2023/06/07 10:08:09;;;;;;;5.00;2.03;;;19.50;59.30;;;;;;5073225;28;20040;-65
2023/06/07 10:10:35;;;;;;;3.30;1.33;;;19.40;59.20;;;;;;5073166;28;20040;-64
2023/06/07 10:13:05;;;;;;;5.88;1.80;;;19.50;58.90;;;;;;5072961;28;20068;-65
2023/06/07 10:15:33;;;;;;;5.60;1.87;;;19.60;59.30;;;;;;5073214;28;20036;-65
2023/06/07 10:18:19;;;;;;;4.55;1.83;;;19.60;57.50;;;;;;5073204;28;20085;-65
2023/06/07 10:21:01;;;;;;;4.15;1.75;;;19.40;53.20;;;;;;5073113;28;20403;-64
2023/06/07 10:23:48;;;;;;;2.70;1.83;;;19.50;52.70;;;;;;5073154;28;20391;-65
2023/06/07 10:26:22;;;;;;;5.50;1.65;;;19.40;49.40;;;;;;5072210;28;20173;-63
2023/06/07 10:29:06;;;;;;;5.20;1.60;;;19.40;45.50;;;;;;5072650;28;20043;-64
2023/06/07 10:31:36;;;;;;;2.88;1.63;;;19.50;40.50;;;;;;5072587;28;20094;-63
2023/06/07 10:34:08;;;;;;;3.35;1.75;;;19.30;46.70;;;;;;5072922;28;20081;-65
2023/06/07 10:36:41;;;;;;;3.33;1.98;;;19.30;47.60;;;;;;5072687;28;20048;-65
2023/06/07 10:39:08;;;;;;;6.97;2.10;;;19.70;49.40;;;;;;5072877;28;20047;-65
2023/06/07 10:41:35;;;;;;;5.65;1.90;;;19.50;50.30;;;;;;5072873;28;20042;-64
2023/06/07 10:44:01;;;;;;;3.50;1.80;;;19.40;50.50;;;;;;5072769;28;20044;-64
2023/06/07 10:46:28;;;;;;;4.20;1.67;;;19.40;48.60;;;;;;5072597;28;20040;-64
2023/06/07 10:48:55;;;;;;;11.38;1.95;;;19.40;50.20;;;;;;5072691;28;20045;-63
2023/06/07 10:51:53;;;;;;;6.90;1.83;;;19.50;49.80;;;;;;5070942;28;20086;-64
2023/06/07 10:54:32;;;;;;;7.93;1.80;;;19.50;49.50;;;;;;5072748;28;20045;-63
2023/06/07 10:57:02;;;;;;;2.90;1.77;;;19.80;51.60;;;;;;5072428;28;20119;-64
2023/06/07 10:59:29;;;;;;;4.93;1.77;;;19.50;52.00;;;;;;5072721;28;20052;-63
2023/06/07 11:02:20;;;;;;;4.32;2.10;;;20.00;54.70;;;;;;5072648;28;20044;-63
2023/06/07 11:04:57;;;;;;;5.45;1.98;;;19.80;47.90;;;;;;5072701;28;20523;-64
2023/06/07 11:07:32;;;;;;;3.75;1.77;;;19.80;46.40;;;;;;5072297;28;20570;-64
2023/06/07 11:10:07;;;;;;;4.10;2.30;;;19.70;45.80;;;;;;5072419;28;20059;-67
2023/06/07 11:12:35;;;;;;;5.57;2.15;;;19.80;46.30;;;;;;5072530;28;20048;-64
2023/06/07 11:15:24;;;;;;;4.78;2.00;;;20.20;47.30;;;;;;5070903;28;20125;-65
2023/06/07 11:18:00;;;;;;;3.67;2.22;;;19.80;46.30;;;;;;5072527;28;20558;-66
2023/06/07 11:20:35;;;;;;;4.60;2.25;;;19.90;45.10;;;;;;5071201;28;20046;-65
2023/06/07 11:23:35;;;;;;;5.22;2.05;;;19.90;46.00;;;;;;5070909;28;20052;-65
2023/06/07 11:26:10;;;;;;;3.03;1.80;;;19.90;46.10;;;;;;5071076;28;20080;-66
2023/06/07 11:28:38;;;;;;;4.68;2.00;;;19.90;59.60;;;;;;5072383;28;20124;-66
2023/06/07 11:31:08;;;;;;;4.55;2.55;;;19.90;45.30;;;;;;5072373;28;20447;-66
2023/06/07 11:33:34;;;;;;;6.93;2.25;;;20.00;44.40;;;;;;5072437;28;20068;-65
2023/06/07 11:36:01;;;;;;;5.10;2.92;;;20.40;43.50;;;;;;5072267;28;20036;-65
2023/06/07 11:38:26;;;;;;;6.65;2.63;;;19.90;45.70;;;;;;5074947;28;20438;-65
2023/06/07 11:40:52;;;;;;;2.78;1.83;;;19.90;44.70;;;;;;5075981;28;20041;-65
2023/06/07 11:43:22;;;;;;;6.78;2.35;;;20.10;46.30;;;;;;5075927;28;20034;-65
2023/06/07 11:45:49;;;;;;;3.60;1.80;;;20.10;44.70;;;;;;5074354;28;20128;-65
2023/06/07 11:48:15;;;;;;;3.53;1.60;;;20.20;45.60;;;;;;5075883;28;20422;-65
2023/06/07 11:50:43;;;;;;;5.45;2.10;;;20.30;47.20;;;;;;5075415;28;20041;-65
2023/06/07 11:53:09;;;;;;;3.63;2.17;;;20.30;46.00;;;;;;5075690;28;20037;-67
2023/06/07 11:55:36;;;;;;;9.98;2.40;;;20.30;46.00;;;;;;5075703;28;20431;-68
2023/06/07 11:58:03;;;;;;;6.10;2.40;;;20.40;45.50;;;;;;5074291;28;20040;-67
2023/06/07 12:00:35;;;;;;;3.53;2.03;;;20.40;43.70;;;;;;5075612;28;20039;-68
2023/06/07 12:03:01;;;;;;;4.13;1.80;;;20.40;39.00;;;;;;5075042;28;20056;-68
2023/06/07 12:05:30;;;;;;;5.20;2.33;;;20.40;44.60;;;;;;5075598;28;20045;-68
2023/06/07 12:08:07;;;;;;;6.22;2.45;;;20.40;40.00;;;;;;5075479;28;20040;-68
2023/06/07 12:10:36;;;;;;;6.65;2.47;;;20.30;40.90;;;;;;5075410;28;20395;-65
2023/06/07 12:13:21;;;;;;;8.20;2.67;;;20.60;40.80;;;;;;5075037;28;20041;-67
2023/06/07 12:15:48;;;;;;;6.75;2.55;;;20.20;37.80;;;;;;5075258;28;20041;-67
2023/06/07 12:18:18;;;;;;;13.40;2.78;;;20.20;35.80;;;;;;5075160;28;20033;-66
2023/06/07 12:20:46;;;;;;;5.82;2.58;;;20.20;37.30;;;;;;5075200;28;20051;-65
2023/06/07 12:23:13;;;;;;;8.02;2.50;;;20.10;40.70;;;;;;5075061;28;20115;-66
2023/06/07 12:25:41;;;;;;;7.50;3.10;;;20.30;40.20;;;;;;5075153;28;20488;-66
2023/06/07 12:28:11;;;;;;;5.90;2.55;;;20.40;42.80;;;;;;5073397;28;20040;-65
2023/06/07 12:30:39;;;;;;;4.97;2.10;;;20.50;41.60;;;;;;5074695;28;20123;-68
2023/06/07 12:33:06;;;;;;;4.78;2.60;;;20.50;43.30;;;;;;5074967;28;20036;-67
2023/06/07 12:35:39;;;;;;;4.93;2.65;;;20.50;40.00;;;;;;5073737;28;20064;-67
2023/06/07 12:38:10;;;;;;;6.65;2.60;;;20.50;41.80;;;;;;5074821;28;20040;-67
2023/06/07 12:40:36;;;;;;;2.90;1.88;;;20.50;40.70;;;;;;5074790;28;20047;-66
2023/06/07 12:43:01;;;;;;;4.72;2.28;;;20.40;43.10;;;;;;5074816;28;20435;-67
2023/06/07 12:45:27;;;;;;;2.97;1.67;;;21.00;39.70;;;;;;5074756;28;20055;-68
2023/06/07 12:47:54;;;;;;;5.35;2.42;;;20.40;38.10;;;;;;5074359;28;20040;-66
2023/06/07 12:50:19;;;;;;;5.13;2.58;;;20.30;36.10;;;;;;5073451;28;20049;-67
2023/06/07 12:52:45;;;;;;;10.13;2.00;;;20.30;36.90;;;;;;5072968;28;20090;-67